Time;durP1;ratioP1;P1;durP2;ratioP2;P2;SDS_P1;SDS_P2;PMS_P1;PMS_P2;Temp;Humidity;BMP_temperature;BMP_pressure;BME280_temperature;BME280_humidity;BME280_pressure;Samples;Min_cycle;Max_cycle;Signal;HPM_P1;HPM_P2
2021/12/26 00:00:11;;;;;;;8.45;3.60;;;-6.40;99.90;;;;;;5037762;28;20099;-68
2021/12/26 00:02:36;;;;;;;7.85;3.50;;;-6.40;99.90;;;;;;5054904;28;20053;-66
2021/12/26 00:05:04;;;;;;;6.00;3.75;;;-6.40;99.90;;;;;;5054683;28;20531;-67
2021/12/26 00:07:30;;;;;;;6.95;3.83;;;-6.50;99.90;;;;;;5054592;28;20053;-67
2021/12/26 00:09:55;;;;;;;7.85;3.65;;;-5.80;99.90;;;;;;5057751;28;20511;-67
2021/12/26 00:12:21;;;;;;;6.10;3.72;;;-6.50;99.90;;;;;;5041150;28;20110;-67
2021/12/26 00:14:46;;;;;;;7.70;4.18;;;-6.50;99.90;;;;;;5041017;28;20416;-66
2021/12/26 00:17:12;;;;;;;6.43;3.47;;;-6.50;99.90;;;;;;5058650;28;20045;-66
2021/12/26 00:19:38;;;;;;;9.52;4.60;;;-6.60;99.90;;;;;;5040947;28;20041;-67
2021/12/26 00:22:04;;;;;;;7.90;4.25;;;-6.60;99.90;;;;;;5040756;28;20056;-66
2021/12/26 00:24:29;;;;;;;6.70;4.00;;;-6.60;99.90;;;;;;5058519;28;20044;-66
2021/12/26 00:26:55;;;;;;;8.63;3.92;;;-6.50;99.90;;;;;;5041118;28;20078;-67
2021/12/26 00:29:20;;;;;;;7.65;3.80;;;-6.60;99.90;;;;;;5058285;28;20041;-67
2021/12/26 00:31:46;;;;;;;7.30;4.40;;;-6.50;99.90;;;;;;5040818;28;20052;-67
2021/12/26 00:34:12;;;;;;;9.32;4.88;;;-6.40;99.90;;;;;;5058522;28;20041;-67
2021/12/26 00:36:37;;;;;;;6.88;4.85;;;-6.50;99.90;;;;;;5040246;28;20049;-66
2021/12/26 00:39:04;;;;;;;7.85;4.70;;;-6.50;99.90;;;;;;5057863;28;20048;-66
2021/12/26 00:41:29;;;;;;;9.98;5.22;;;-6.40;99.90;;;;;;5040218;28;20102;-68
2021/12/26 00:43:55;;;;;;;8.93;4.82;;;-6.40;99.90;;;;;;5041315;28;20053;-68
2021/12/26 00:46:21;;;;;;;9.23;4.43;;;-6.40;99.90;;;;;;5040048;28;20060;-67
2021/12/26 00:48:46;;;;;;;8.80;4.85;;;-6.40;99.90;;;;;;5058067;28;20123;-65
2021/12/26 00:51:12;;;;;;;11.05;4.38;;;-6.40;99.90;;;;;;5040022;28;20517;-68
2021/12/26 00:53:38;;;;;;;10.25;4.00;;;-6.40;99.90;;;;;;5024103;28;20057;-66
2021/12/26 00:56:04;;;;;;;11.15;4.32;;;-6.30;99.90;;;;;;5057534;28;20052;-65
2021/12/26 00:58:30;;;;;;;9.07;4.45;;;-6.40;99.90;;;;;;5040178;28;20148;-68
2021/12/26 01:00:56;;;;;;;11.45;5.35;;;-6.40;99.90;;;;;;5040238;28;20041;-66
2021/12/26 01:03:22;;;;;;;8.75;3.97;;;-6.50;99.90;;;;;;5058102;28;20053;-67
2021/12/26 01:05:52;;;;;;;10.95;4.05;;;-6.50;99.90;;;;;;5057619;28;20045;-68
2021/12/26 01:08:23;;;;;;;8.50;4.20;;;-6.50;99.90;;;;;;5040372;28;20056;-66
2021/12/26 01:10:59;;;;;;;8.18;4.00;;;-6.60;99.90;;;;;;5057801;28;20052;-67
2021/12/26 01:13:32;;;;;;;8.68;4.00;;;-6.60;99.90;;;;;;5055392;28;20041;-66
2021/12/26 01:16:01;;;;;;;6.22;3.70;;;-6.60;99.90;;;;;;5040058;28;20591;-66
2021/12/26 01:18:29;;;;;;;4.88;3.63;;;-6.70;99.90;;;;;;5057257;28;20052;-68
2021/12/26 01:21:03;;;;;;;7.55;3.85;;;-6.70;99.90;;;;;;5039329;28;20048;-66
2021/12/26 01:23:29;;;;;;;;;;;-6.30;99.90;;;;;;5040523;28;20056;-66
2021/12/26 01:25:55;;;;;;;6.97;3.65;;;-6.70;99.90;;;;;;5040054;28;19921;-66
2021/12/26 01:28:28;;;;;;;7.18;3.90;;;-6.80;99.90;;;;;;5057258;28;20080;-66
2021/12/26 01:30:54;;;;;;;6.88;4.05;;;-6.80;99.90;;;;;;5056996;28;20045;-67
2021/12/26 01:33:20;;;;;;;7.15;3.38;;;-6.90;99.90;;;;;;5039480;28;20064;-67
2021/12/26 01:35:47;;;;;;;6.05;4.05;;;-6.90;99.90;;;;;;5039448;28;20041;-68
2021/12/26 01:38:15;;;;;;;9.00;3.75;;;-7.00;99.90;;;;;;5056765;28;20041;-67
2021/12/26 01:40:53;;;;;;;6.60;3.60;;;-7.00;99.90;;;;;;5057215;28;20360;-65
2021/12/26 01:43:23;;;;;;;7.65;3.50;;;-7.10;99.90;;;;;;5056579;28;20064;-65
2021/12/26 01:45:50;;;;;;;7.30;3.88;;;-5.90;99.90;;;;;;5039646;28;20372;-66
2021/12/26 01:48:16;;;;;;;7.30;3.63;;;-7.00;99.90;;;;;;5057311;28;20407;-65
2021/12/26 01:50:43;;;;;;;7.65;3.30;;;-7.10;99.90;;;;;;5039567;28;20049;-66
2021/12/26 01:53:10;;;;;;;8.75;4.00;;;-7.10;99.90;;;;;;5056752;28;20080;-66
2021/12/26 01:55:42;;;;;;;7.72;3.55;;;-7.20;99.90;;;;;;5056705;28;20049;-65
2021/12/26 01:58:15;;;;;;;6.60;3.65;;;-7.10;99.90;;;;;;5056497;28;20432;-66
2021/12/26 02:00:44;;;;;;;6.35;3.13;;;-7.10;99.90;;;;;;5039494;28;20068;-67
2021/12/26 02:03:11;;;;;;;7.70;3.67;;;-6.50;99.90;;;;;;5056679;28;20045;-65
2021/12/26 02:05:36;;;;;;;7.05;3.58;;;-7.10;99.90;;;;;;5056484;28;20123;-68
2021/12/26 02:08:03;;;;;;;7.20;3.50;;;-7.00;99.90;;;;;;5039566;28;20194;-67
2021/12/26 02:10:29;;;;;;;5.70;3.35;;;-7.00;99.90;;;;;;5022459;28;20045;-65
2021/12/26 02:12:54;;;;;;;7.63;3.40;;;-7.10;99.90;;;;;;5055842;28;20082;-67
2021/12/26 02:15:20;;;;;;;5.70;3.00;;;-7.10;99.90;;;;;;5056321;28;20567;-68
2021/12/26 02:17:46;;;;;;;5.70;3.13;;;-6.90;99.90;;;;;;5056233;28;20153;-67
2021/12/26 02:20:37;;;;;;;6.95;3.40;;;-7.20;99.90;;;;;;5056300;28;20110;-65
2021/12/26 02:23:12;;;;;;;6.63;3.42;;;-7.20;99.90;;;;;;5056246;28;20060;-68
2021/12/26 02:28:13;;;;;;;7.43;3.35;;;-7.30;99.90;;;;;;5056653;28;20052;-67
2021/12/26 02:30:39;;;;;;;6.10;3.47;;;-7.30;99.90;;;;;;5055429;28;20127;-67
2021/12/26 02:33:08;;;;;;;9.32;3.55;;;-7.40;99.90;;;;;;5055742;28;20037;-66
2021/12/26 02:35:34;;;;;;;5.75;3.55;;;-7.40;99.90;;;;;;5055977;28;20099;-67
2021/12/26 02:38:01;;;;;;;6.03;3.45;;;-7.40;99.90;;;;;;5038844;28;20373;-66
2021/12/26 02:40:27;;;;;;;5.40;3.40;;;-7.40;99.90;;;;;;5038667;28;20390;-66
2021/12/26 02:42:52;;;;;;;5.28;3.10;;;-7.40;99.90;;;;;;5055950;28;20037;-65
2021/12/26 02:45:18;;;;;;;6.05;3.47;;;-7.40;99.90;;;;;;5038371;28;20049;-66
2021/12/26 02:47:46;;;;;;;6.55;3.30;;;-7.40;99.90;;;;;;5038461;28;20059;-67
2021/12/26 02:50:22;;;;;;;5.85;3.58;;;-7.40;99.90;;;;;;5055573;28;20049;-67
2021/12/26 02:52:48;;;;;;;6.22;3.53;;;-7.40;99.90;;;;;;5055499;28;20052;-67
2021/12/26 02:55:17;;;;;;;6.78;3.50;;;-7.40;99.90;;;;;;5037965;28;20120;-66
2021/12/26 02:58:01;;;;;;;7.22;3.95;;;-7.40;99.90;;;;;;5055928;28;20468;-67
2021/12/26 03:00:30;;;;;;;6.97;3.17;;;-7.50;99.90;;;;;;5037674;28;20059;-67
2021/12/26 03:03:00;;;;;;;10.18;3.22;;;-7.50;99.90;;;;;;5055423;28;20045;-65
2021/12/26 03:05:30;;;;;;;6.25;3.40;;;-6.60;99.90;;;;;;5037582;28;20053;-67
2021/12/26 03:07:56;;;;;;;6.22;3.20;;;-6.70;99.90;;;;;;5055243;28;20048;-65
2021/12/26 03:10:25;;;;;;;10.02;3.08;;;-7.60;99.90;;;;;;5055066;28;20084;-67
2021/12/26 03:12:53;;;;;;;6.80;3.40;;;-7.60;99.90;;;;;;5037805;28;20523;-65
2021/12/26 03:15:19;;;;;;;5.30;3.40;;;-7.60;99.90;;;;;;5055338;28;20083;-66
2021/12/26 03:17:45;;;;;;;6.88;3.38;;;-7.60;99.90;;;;;;5055257;28;20134;-66
2021/12/26 03:20:15;;;;;;;5.35;3.30;;;-7.60;99.90;;;;;;5037606;28;20068;-65
2021/12/26 03:22:41;;;;;;;6.10;3.00;;;-7.60;99.90;;;;;;5055385;28;20048;-67
2021/12/26 03:25:12;;;;;;;8.52;3.30;;;-7.60;99.90;;;;;;5055217;28;20333;-66
2021/12/26 03:27:37;;;;;;;5.40;2.88;;;-7.40;99.90;;;;;;5037247;28;20049;-65
2021/12/26 03:30:06;;;;;;;8.38;3.00;;;-7.50;99.90;;;;;;5055179;28;20048;-66
2021/12/26 03:32:32;;;;;;;6.68;3.15;;;-7.40;99.90;;;;;;5054838;28;20076;-66
2021/12/26 03:34:57;;;;;;;6.43;3.38;;;-7.40;99.90;;;;;;5055451;28;20087;-65
2021/12/26 03:37:23;;;;;;;5.40;2.95;;;-7.40;99.90;;;;;;5037090;28;20467;-66
2021/12/26 03:39:49;;;;;;;7.40;3.72;;;-7.40;99.90;;;;;;5055284;28;20036;-68
2021/12/26 03:42:15;;;;;;;5.68;3.33;;;-7.30;99.90;;;;;;5054977;28;20045;-66
2021/12/26 03:44:41;;;;;;;6.95;3.25;;;-7.30;99.90;;;;;;5054691;28;20040;-66
2021/12/26 03:47:06;;;;;;;4.93;3.00;;;-7.30;99.90;;;;;;5036981;28;20106;-66
2021/12/26 03:49:32;;;;;;;5.50;3.08;;;-7.30;99.90;;;;;;5036991;28;20387;-67
2021/12/26 03:51:58;;;;;;;8.50;3.33;;;-7.30;99.90;;;;;;5037429;28;20356;-65
2021/12/26 03:54:24;;;;;;;5.57;3.15;;;-7.30;99.90;;;;;;5036960;28;20131;-66
2021/12/26 03:56:49;;;;;;;6.80;2.97;;;-7.30;99.90;;;;;;5037267;28;20048;-66
2021/12/26 03:59:15;;;;;;;4.80;3.30;;;-7.30;99.90;;;;;;5054758;28;20368;-66
2021/12/26 04:01:41;;;;;;;8.48;3.85;;;-7.30;99.90;;;;;;5036942;28;20533;-66
2021/12/26 04:04:06;;;;;;;5.82;3.67;;;-7.20;99.90;;;;;;5054845;28;20214;-66
2021/12/26 04:06:32;;;;;;;6.18;3.20;;;-7.20;99.90;;;;;;5054980;28;20045;-66
2021/12/26 04:08:58;;;;;;;6.63;3.63;;;-7.30;99.90;;;;;;5054814;28;20108;-65
2021/12/26 04:11:24;;;;;;;5.70;3.30;;;-7.30;99.90;;;;;;5037154;28;20479;-66
2021/12/26 04:13:50;;;;;;;7.55;3.20;;;-7.30;99.90;;;;;;5037301;28;20060;-68
2021/12/26 04:16:15;;;;;;;8.60;3.47;;;-7.30;99.90;;;;;;5037212;28;20060;-65
2021/12/26 04:18:41;;;;;;;7.00;3.22;;;-7.30;99.90;;;;;;5037277;28;20053;-65
2021/12/26 04:21:07;;;;;;;7.68;3.55;;;-7.30;99.90;;;;;;5054446;28;20079;-66
2021/12/26 04:23:34;;;;;;;5.95;3.50;;;-7.30;99.90;;;;;;5035685;28;20087;-66
2021/12/26 04:25:59;;;;;;;4.22;2.95;;;-7.40;99.90;;;;;;5036780;28;20072;-67
2021/12/26 04:28:25;;;;;;;5.28;3.22;;;-7.40;99.90;;;;;;5053883;28;20075;-67
2021/12/26 04:30:51;;;;;;;5.15;2.90;;;-7.40;99.90;;;;;;5036805;28;20049;-65
2021/12/26 04:33:17;;;;;;;4.63;3.30;;;-7.50;99.90;;;;;;5037546;28;20040;-67
2021/12/26 04:35:43;;;;;;;8.68;3.72;;;-7.50;99.90;;;;;;5054188;28;20045;-66
2021/12/26 04:38:08;;;;;;;6.57;3.50;;;-7.50;99.90;;;;;;5037121;28;20368;-66
2021/12/26 04:40:34;;;;;;;4.88;3.17;;;-7.50;99.90;;;;;;5037296;28;20045;-67
2021/12/26 04:43:00;;;;;;;6.07;3.63;;;-7.50;99.90;;;;;;5054417;28;20106;-66
2021/12/26 04:45:26;;;;;;;6.15;3.50;;;-7.50;99.90;;;;;;5036169;28;20053;-67
2021/12/26 04:47:52;;;;;;;7.25;3.30;;;-7.50;99.90;;;;;;5054105;28;20060;-67
2021/12/26 04:50:21;;;;;;;6.85;3.63;;;-7.60;99.90;;;;;;5037219;28;20048;-65
2021/12/26 04:52:48;;;;;;;7.40;3.53;;;-7.60;99.90;;;;;;5036927;28;20128;-67
2021/12/26 04:55:17;;;;;;;7.20;3.83;;;-7.60;99.90;;;;;;5038647;28;20048;-67
2021/12/26 04:57:42;;;;;;;5.57;3.10;;;-7.60;99.90;;;;;;5058522;28;20049;-66
2021/12/26 05:00:12;;;;;;;7.78;4.00;;;-7.50;99.90;;;;;;5039756;28;20075;-67
2021/12/26 05:02:39;;;;;;;7.35;3.90;;;-7.50;99.90;;;;;;5040086;28;20049;-66
2021/12/26 05:05:06;;;;;;;7.30;3.40;;;-7.40;99.90;;;;;;5057747;28;20078;-66
2021/12/26 05:07:32;;;;;;;9.45;3.63;;;-7.30;99.90;;;;;;5057788;28;20049;-67
2021/12/26 05:09:58;;;;;;;5.85;3.30;;;-7.30;99.90;;;;;;5057450;28;20060;-65
2021/12/26 05:12:24;;;;;;;5.53;3.20;;;-7.20;99.90;;;;;;5023212;28;20041;-66
2021/12/26 05:14:50;;;;;;;5.93;3.42;;;-7.20;99.90;;;;;;5039900;28;20126;-66
2021/12/26 05:17:16;;;;;;;5.05;3.47;;;-7.20;99.90;;;;;;5057355;28;20121;-65
2021/12/26 05:19:41;;;;;;;6.20;3.22;;;-6.40;99.90;;;;;;5039601;28;20445;-67
2021/12/26 05:22:07;;;;;;;5.65;3.33;;;-7.20;99.90;;;;;;5057125;28;20437;-65
2021/12/26 05:24:33;;;;;;;7.47;4.32;;;-7.20;99.90;;;;;;5039568;28;20045;-67
2021/12/26 05:26:58;;;;;;;7.75;3.45;;;-7.20;99.90;;;;;;5056944;28;20372;-67
2021/12/26 05:29:24;;;;;;;9.77;4.70;;;-7.20;99.90;;;;;;5039138;28;20109;-66
2021/12/26 05:31:50;;;;;;;6.32;3.63;;;-7.20;99.90;;;;;;5057219;28;20131;-65
2021/12/26 05:34:15;;;;;;;5.75;3.53;;;-7.20;99.90;;;;;;5039642;28;20045;-66
2021/12/26 05:36:41;;;;;;;13.93;4.10;;;-7.20;99.90;;;;;;5039593;28;20044;-65
2021/12/26 05:39:07;;;;;;;7.55;3.97;;;-7.20;99.90;;;;;;5039529;28;20352;-65
2021/12/26 05:41:33;;;;;;;9.50;4.38;;;-7.20;99.90;;;;;;5056855;28;20436;-65
2021/12/26 05:43:59;;;;;;;6.65;3.70;;;-7.20;99.90;;;;;;5056800;28;20053;-67
2021/12/26 05:46:25;;;;;;;7.18;3.67;;;-7.20;99.90;;;;;;5056757;28;20057;-67
2021/12/26 05:48:51;;;;;;;8.48;4.50;;;-7.20;99.90;;;;;;5056961;28;20399;-66
2021/12/26 05:51:16;;;;;;;8.20;4.03;;;-7.20;99.90;;;;;;5056993;28;20045;-65
2021/12/26 05:53:42;;;;;;;7.90;4.50;;;-7.20;99.90;;;;;;5056682;28;20523;-66
2021/12/26 05:56:08;;;;;;;6.78;3.92;;;-7.20;99.90;;;;;;5056691;28;20356;-67
2021/12/26 05:58:34;;;;;;;5.75;3.83;;;-7.20;99.90;;;;;;5056823;28;20330;-65
2021/12/26 06:01:00;;;;;;;6.40;4.30;;;-7.20;99.90;;;;;;5038963;28;20380;-65
2021/12/26 06:03:25;;;;;;;6.72;3.75;;;-7.20;99.90;;;;;;5022824;28;20123;-67
2021/12/26 06:05:51;;;;;;;14.82;4.65;;;-7.20;99.90;;;;;;5037955;28;20052;-67
2021/12/26 06:08:17;;;;;;;8.73;4.90;;;-7.20;99.90;;;;;;5038527;28;20469;-67
2021/12/26 06:10:43;;;;;;;9.45;4.53;;;-7.30;99.90;;;;;;5039561;28;20052;-67
2021/12/26 06:13:09;;;;;;;6.25;4.10;;;-7.20;99.90;;;;;;5038480;28;20483;-67
2021/12/26 06:15:34;;;;;;;7.40;4.57;;;-7.20;99.90;;;;;;5038800;28;20045;-66
2021/12/26 06:18:01;;;;;;;6.07;3.95;;;-7.20;99.90;;;;;;5038921;28;20091;-67
2021/12/26 06:20:27;;;;;;;6.68;4.00;;;-7.30;99.90;;;;;;5038114;28;20372;-65
2021/12/26 06:22:52;;;;;;;7.78;4.65;;;-7.20;99.90;;;;;;5038309;28;20053;-66
2021/12/26 06:25:18;;;;;;;10.10;4.20;;;-7.30;99.90;;;;;;5039187;28;20049;-66
2021/12/26 06:27:43;;;;;;;8.98;4.13;;;-7.20;99.90;;;;;;5038979;28;20037;-66
2021/12/26 06:30:10;;;;;;;9.07;4.57;;;-6.70;99.90;;;;;;5039086;28;20465;-65
2021/12/26 06:32:37;;;;;;;7.22;4.47;;;-7.30;99.90;;;;;;5055811;28;20099;-66
2021/12/26 06:35:03;;;;;;;9.57;4.97;;;-7.30;99.90;;;;;;5038358;28;20045;-67
2021/12/26 06:37:30;;;;;;;7.78;4.82;;;-7.30;99.90;;;;;;5038200;28;20361;-67
2021/12/26 06:39:56;;;;;;;14.60;4.57;;;-7.30;99.90;;;;;;5056441;28;20373;-66
2021/12/26 06:42:21;;;;;;;9.80;4.63;;;-7.30;99.90;;;;;;5038868;28;20052;-65
2021/12/26 06:44:47;;;;;;;9.48;4.85;;;-7.30;99.90;;;;;;5038460;28;20041;-67
2021/12/26 06:47:13;;;;;;;9.98;4.50;;;-6.30;99.90;;;;;;5038071;28;20525;-67
2021/12/26 06:49:41;;;;;;;7.30;4.20;;;-7.20;99.90;;;;;;5055784;28;20081;-65
2021/12/26 06:52:06;;;;;;;6.70;3.97;;;-5.70;99.90;;;;;;5037828;28;20083;-66
2021/12/26 06:54:33;;;;;;;9.70;4.53;;;-7.30;99.90;;;;;;5021673;28;20052;-66
2021/12/26 06:56:58;;;;;;;7.65;4.90;;;-7.20;99.90;;;;;;5037581;28;20400;-67
2021/12/26 06:59:25;;;;;;;8.45;4.78;;;-7.30;99.90;;;;;;5055039;28;20059;-67
2021/12/26 07:01:50;;;;;;;6.95;4.57;;;-7.30;99.90;;;;;;5037637;28;20377;-67
2021/12/26 07:04:16;;;;;;;9.10;4.60;;;-7.20;99.90;;;;;;5037763;28;20048;-66
2021/12/26 07:06:41;;;;;;;9.40;4.60;;;-7.30;99.90;;;;;;5037398;28;20452;-67
2021/12/26 07:09:07;;;;;;;7.60;4.70;;;-7.30;99.90;;;;;;5037571;28;20457;-68
2021/12/26 07:11:32;;;;;;;7.38;4.28;;;-7.30;99.90;;;;;;5038183;28;20060;-66
2021/12/26 07:13:58;;;;;;;9.57;4.65;;;-7.40;99.90;;;;;;5054902;28;20054;-67
2021/12/26 07:16:25;;;;;;;7.47;4.50;;;-7.40;99.90;;;;;;5037471;28;20036;-67
2021/12/26 07:18:51;;;;;;;7.50;4.72;;;-7.40;99.90;;;;;;5055149;28;20099;-66
2021/12/26 07:21:17;;;;;;;10.73;5.43;;;-6.20;99.90;;;;;;5037273;28;20452;-65
2021/12/26 07:23:43;;;;;;;7.75;4.70;;;-7.30;99.90;;;;;;5037023;28;20120;-68
2021/12/26 07:26:08;;;;;;;10.05;4.93;;;-7.30;99.90;;;;;;5037049;28;20115;-69
2021/12/26 07:28:34;;;;;;;9.35;4.80;;;-7.20;99.90;;;;;;5036610;28;20041;-68
2021/12/26 07:31:00;;;;;;;7.93;4.82;;;-7.20;99.90;;;;;;5037177;28;20079;-68
2021/12/26 07:33:26;;;;;;;7.85;4.50;;;-7.20;99.90;;;;;;5036550;28;20040;-65
2021/12/26 07:35:55;;;;;;;9.05;5.28;;;-7.20;99.90;;;;;;5054095;28;20052;-67
2021/12/26 07:38:21;;;;;;;8.93;5.18;;;-7.20;99.90;;;;;;5051705;28;20512;-66
2021/12/26 07:40:47;;;;;;;9.15;4.93;;;-7.20;99.90;;;;;;5036896;28;20084;-67
2021/12/26 07:43:14;;;;;;;7.00;4.47;;;-7.00;99.90;;;;;;5054161;28;20110;-69
2021/12/26 07:45:42;;;;;;;8.50;4.57;;;-7.10;99.90;;;;;;5053490;28;20381;-69
2021/12/26 07:48:08;;;;;;;8.52;4.85;;;-7.00;99.90;;;;;;5053940;28;20107;-68
2021/12/26 07:50:33;;;;;;;8.00;5.20;;;-6.90;99.90;;;;;;5054011;28;20128;-67
2021/12/26 07:53:05;;;;;;;8.05;4.88;;;-6.90;99.90;;;;;;5036344;28;20072;-67
2021/12/26 07:55:31;;;;;;;8.02;4.93;;;-6.90;99.90;;;;;;5034422;28;20049;-67
2021/12/26 07:57:56;;;;;;;7.50;4.13;;;-6.90;99.90;;;;;;5035598;28;20495;-67
2021/12/26 08:00:22;;;;;;;8.88;4.80;;;-6.80;99.90;;;;;;5036188;28;20045;-66
2021/12/26 08:02:48;;;;;;;11.98;5.40;;;-6.70;99.90;;;;;;5053416;28;20033;-66
2021/12/26 08:05:15;;;;;;;7.97;5.43;;;-6.70;99.90;;;;;;5052588;28;20175;-67
2021/12/26 08:07:40;;;;;;;7.10;4.82;;;-6.70;99.90;;;;;;5053309;28;20044;-66
2021/12/26 08:10:06;;;;;;;8.27;5.07;;;-6.60;99.90;;;;;;5053580;28;20036;-66
2021/12/26 08:12:32;;;;;;;10.80;4.97;;;-6.70;99.90;;;;;;5053243;28;20115;-67
2021/12/26 08:14:59;;;;;;;7.57;5.03;;;-6.60;99.90;;;;;;5035852;28;20080;-66
2021/12/26 08:17:25;;;;;;;12.77;5.45;;;-6.60;99.90;;;;;;5069506;28;20140;-65
2021/12/26 08:19:50;;;;;;;8.27;4.95;;;-6.60;99.90;;;;;;5035889;28;20040;-65
2021/12/26 08:22:16;;;;;;;7.97;5.43;;;-6.50;99.90;;;;;;5036104;28;20051;-65
2021/12/26 08:24:42;;;;;;;8.23;5.15;;;-5.40;99.90;;;;;;5053639;28;20178;-70
2021/12/26 08:27:08;;;;;;;8.10;5.18;;;-6.30;99.90;;;;;;5053472;28;20112;-66
2021/12/26 08:29:34;;;;;;;8.82;5.63;;;-6.00;99.90;;;;;;5055483;28;20083;-66
2021/12/26 08:32:00;;;;;;;12.63;5.03;;;-6.30;99.90;;;;;;5057138;28;20140;-67
2021/12/26 08:34:30;;;;;;;7.55;5.45;;;-6.20;99.90;;;;;;5039249;28;20045;-69
2021/12/26 08:37:02;;;;;;;8.98;5.80;;;-6.10;99.90;;;;;;5054193;28;20041;-69
2021/12/26 08:39:34;;;;;;;10.95;6.25;;;-6.10;99.90;;;;;;5056953;28;20048;-66
2021/12/26 08:42:00;;;;;;;9.30;5.68;;;-6.10;99.90;;;;;;5054826;28;20040;-66
2021/12/26 08:44:25;;;;;;;8.98;5.15;;;-6.10;99.90;;;;;;5056962;28;20485;-67
2021/12/26 08:46:52;;;;;;;10.35;5.80;;;-6.10;99.90;;;;;;5057087;28;20098;-66
2021/12/26 08:49:19;;;;;;;7.45;5.43;;;-6.00;99.90;;;;;;5038852;28;20088;-68
2021/12/26 08:51:46;;;;;;;8.60;5.47;;;-6.00;99.90;;;;;;5056932;28;20424;-71
2021/12/26 08:54:12;;;;;;;8.15;5.63;;;-5.90;99.90;;;;;;5039547;28;20059;-65
2021/12/26 08:56:39;;;;;;;9.90;6.15;;;-5.90;99.90;;;;;;5036413;28;20548;-68
2021/12/26 08:59:05;;;;;;;8.70;6.15;;;-5.90;99.90;;;;;;5056866;28;20118;-67
2021/12/26 09:01:31;;;;;;;8.40;5.13;;;-5.80;99.90;;;;;;5038437;28;20048;-66
2021/12/26 09:03:57;;;;;;;9.48;6.22;;;-5.80;99.90;;;;;;5056926;28;20403;-68
2021/12/26 09:06:23;;;;;;;9.45;6.07;;;-5.70;99.90;;;;;;5056750;28;20041;-68
2021/12/26 09:08:49;;;;;;;9.15;6.22;;;-5.70;99.90;;;;;;5056638;28;20044;-66
2021/12/26 09:11:16;;;;;;;9.55;6.38;;;-5.70;99.90;;;;;;5039286;28;20053;-68
2021/12/26 09:13:42;;;;;;;9.10;6.15;;;-5.70;99.90;;;;;;5070045;28;20052;-67
2021/12/26 09:16:08;;;;;;;13.38;6.32;;;-5.60;99.90;;;;;;5056314;28;20041;-69
2021/12/26 09:18:38;;;;;;;10.75;6.05;;;-5.50;99.90;;;;;;5056373;28;20059;-70
2021/12/26 09:21:05;;;;;;;10.68;6.40;;;-5.50;99.90;;;;;;5038018;28;20037;-66
2021/12/26 09:23:32;;;;;;;11.15;6.18;;;-5.50;99.90;;;;;;5057076;28;20049;-66
2021/12/26 09:25:58;;;;;;;8.90;6.32;;;-5.40;99.90;;;;;;5054776;28;20055;-66
2021/12/26 09:28:23;;;;;;;10.43;5.43;;;-5.40;99.90;;;;;;5052506;28;20040;-68
2021/12/26 09:30:49;;;;;;;10.63;6.25;;;-5.30;99.90;;;;;;5037306;28;20414;-67
2021/12/26 09:33:19;;;;;;;10.48;6.80;;;-5.30;99.90;;;;;;5038889;28;20037;-66
2021/12/26 09:35:48;;;;;;;8.73;6.05;;;-5.30;99.90;;;;;;5056203;28;20106;-67
2021/12/26 09:38:13;;;;;;;8.15;4.97;;;-5.20;99.90;;;;;;5038885;28;20159;-67
2021/12/26 09:40:39;;;;;;;9.75;5.70;;;-5.20;99.90;;;;;;5039253;28;20128;-66
2021/12/26 09:43:05;;;;;;;8.10;5.30;;;-5.10;99.90;;;;;;5056041;28;20041;-68
2021/12/26 09:45:31;;;;;;;8.40;5.90;;;-5.00;99.90;;;;;;5038871;28;20116;-66
2021/12/26 09:47:56;;;;;;;7.30;5.10;;;-4.90;99.90;;;;;;5053249;28;20073;-67
2021/12/26 09:50:22;;;;;;;12.30;5.72;;;-5.00;99.90;;;;;;5019516;28;20048;-66
2021/12/26 09:52:49;;;;;;;6.85;5.15;;;-4.90;99.90;;;;;;5019350;28;20080;-65
2021/12/26 09:55:15;;;;;;;8.40;5.65;;;-4.80;99.90;;;;;;5035797;28;20156;-67
2021/12/26 09:57:42;;;;;;;9.45;6.15;;;-4.80;99.90;;;;;;5043105;28;20128;-66
2021/12/26 10:00:20;;;;;;;8.95;6.00;;;-4.70;99.90;;;;;;5055838;28;20039;-69
2021/12/26 10:02:46;;;;;;;8.70;5.68;;;-4.70;99.90;;;;;;5056352;28;20063;-66
2021/12/26 10:05:12;;;;;;;9.77;5.93;;;-4.70;99.90;;;;;;5038991;28;20423;-67
2021/12/26 10:07:38;;;;;;;9.48;5.50;;;-3.50;99.90;;;;;;5038410;28;20104;-68
2021/12/26 10:10:07;;;;;;;9.20;5.50;;;-4.50;99.90;;;;;;5055947;28;20056;-68
2021/12/26 10:12:40;;;;;;;8.63;5.78;;;-4.40;99.90;;;;;;5038407;28;20102;-68
2021/12/26 10:15:07;;;;;;;10.57;5.43;;;-4.40;99.90;;;;;;5038775;28;20178;-65
2021/12/26 10:17:32;;;;;;;8.35;5.68;;;-4.30;99.90;;;;;;5038053;28;20477;-68
2021/12/26 10:20:09;;;;;;;9.82;5.80;;;-4.20;99.90;;;;;;5055681;28;20083;-68
2021/12/26 10:22:35;;;;;;;8.57;5.45;;;-4.20;99.90;;;;;;5055263;28;20530;-66
2021/12/26 10:25:11;;;;;;;11.30;6.05;;;-4.10;99.90;;;;;;5055591;28;20052;-67
2021/12/26 10:27:37;;;;;;;9.88;5.13;;;-4.00;99.90;;;;;;5055163;28;20066;-66
2021/12/26 10:30:05;;;;;;;8.35;5.38;;;-4.10;99.90;;;;;;5055002;28;20033;-66
2021/12/26 10:32:37;;;;;;;8.75;5.35;;;-4.00;99.90;;;;;;5055241;28;20049;-67
2021/12/26 10:35:09;;;;;;;8.48;5.55;;;-3.90;99.90;;;;;;5038400;28;20051;-65
2021/12/26 10:37:47;;;;;;;7.00;5.22;;;-3.80;99.90;;;;;;5055260;28;20052;-66
2021/12/26 10:40:24;;;;;;;9.55;5.20;;;-3.20;99.90;;;;;;5055484;28;20469;-67
2021/12/26 10:42:56;;;;;;;11.10;5.90;;;-3.70;99.90;;;;;;5037959;28;20449;-69
2021/12/26 10:45:27;;;;;;;7.43;5.10;;;-3.60;99.90;;;;;;5022143;28;20053;-67
2021/12/26 10:47:56;;;;;;;8.05;5.40;;;-3.60;99.90;;;;;;5037827;28;20377;-69
2021/12/26 10:50:25;;;;;;;8.13;4.85;;;-3.50;99.90;;;;;;5037382;28;20103;-66
2021/12/26 10:53:08;;;;;;;7.60;4.85;;;-3.40;99.90;;;;;;5020182;28;20208;-69
2021/12/26 10:55:42;;;;;;;7.78;5.45;;;-3.30;99.90;;;;;;5058634;28;20107;-68
2021/12/26 10:58:14;;;;;;;6.45;5.00;;;-3.30;99.90;;;;;;5052448;28;20049;-67
2021/12/26 11:00:45;;;;;;;8.52;5.03;;;-3.20;99.90;;;;;;5037060;28;20051;-67
2021/12/26 11:03:21;;;;;;;8.63;4.70;;;-2.60;99.90;;;;;;5036711;28;20048;-68
2021/12/26 11:05:49;;;;;;;6.93;4.55;;;-3.00;99.90;;;;;;5057953;28;20145;-67
2021/12/26 11:08:28;;;;;;;6.78;4.53;;;-2.90;99.90;;;;;;5054640;28;20124;-67
2021/12/26 11:10:54;;;;;;;7.65;4.70;;;-2.90;99.90;;;;;;5054276;28;20135;-68
2021/12/26 11:13:31;;;;;;;7.72;4.65;;;-2.90;99.90;;;;;;5033280;28;20403;-67
2021/12/26 11:16:00;;;;;;;7.72;4.82;;;-2.90;99.90;;;;;;5037129;28;20041;-66
2021/12/26 11:18:26;;;;;;;7.97;4.80;;;-2.70;99.90;;;;;;5036830;28;20037;-68
2021/12/26 11:20:59;;;;;;;7.43;4.93;;;-2.80;99.90;;;;;;5054710;28;20094;-67
2021/12/26 11:23:28;;;;;;;8.15;4.97;;;-2.80;99.90;;;;;;5054673;28;20052;-66
2021/12/26 11:25:55;;;;;;;8.98;4.88;;;-2.70;99.90;;;;;;5053843;28;20045;-66
2021/12/26 11:28:28;;;;;;;7.03;4.20;;;-2.70;99.90;;;;;;5051396;28;20048;-66
2021/12/26 11:30:59;;;;;;;8.18;4.60;;;-2.70;99.90;;;;;;5044856;28;20048;-67
2021/12/26 11:33:25;;;;;;;10.00;5.00;;;-2.50;99.90;;;;;;5040236;28;20047;-68
2021/12/26 11:35:53;;;;;;;7.85;4.60;;;-2.60;99.90;;;;;;5054342;28;20076;-68
2021/12/26 11:38:22;;;;;;;8.73;5.10;;;-2.50;99.90;;;;;;5036616;28;20055;-69
2021/12/26 11:40:54;;;;;;;6.72;4.35;;;-2.50;99.90;;;;;;5037453;28;20049;-69
2021/12/26 11:43:52;;;;;;;7.17;4.60;;;-2.40;99.90;;;;;;5054334;28;20088;-67
2021/12/26 11:46:48;;;;;;;8.80;4.38;;;-2.40;99.90;;;;;;5054528;28;20053;-69
2021/12/26 11:49:45;;;;;;;6.47;4.28;;;-2.30;99.90;;;;;;5036842;28;20502;-68
2021/12/26 11:52:35;;;;;;;6.63;4.60;;;-2.30;99.90;;;;;;5054498;28;20056;-67
2021/12/26 11:55:27;;;;;;;9.32;4.53;;;-2.20;99.90;;;;;;5036648;28;20040;-68
2021/12/26 11:58:21;;;;;;;7.50;5.10;;;-2.10;99.90;;;;;;5054261;28;20510;-68
2021/12/26 12:00:58;;;;;;;9.27;5.07;;;-2.10;99.90;;;;;;5053902;28;20044;-69
2021/12/26 12:03:27;;;;;;;8.20;4.50;;;-2.10;99.90;;;;;;5054292;28;20041;-68
2021/12/26 12:05:53;;;;;;;7.38;4.60;;;-2.10;99.90;;;;;;5057346;28;20369;-67
2021/12/26 12:08:30;;;;;;;6.03;4.30;;;-2.10;99.90;;;;;;5058211;28;20346;-67
2021/12/26 12:11:05;;;;;;;7.75;4.70;;;-2.00;99.90;;;;;;5024186;28;20041;-66
2021/12/26 12:13:47;;;;;;;10.48;5.10;;;-1.90;99.90;;;;;;5058754;28;20127;-66
2021/12/26 12:16:27;;;;;;;6.85;4.50;;;-1.70;99.90;;;;;;5058334;28;20041;-67
2021/12/26 12:18:59;;;;;;;8.27;5.03;;;-1.90;99.90;;;;;;5047797;28;20075;-69
2021/12/26 12:21:30;;;;;;;9.35;5.35;;;-1.80;99.90;;;;;;5058312;28;20041;-65
2021/12/26 12:24:10;;;;;;;9.15;4.60;;;-1.30;99.90;;;;;;5057796;28;20037;-71
2021/12/26 12:26:40;;;;;;;8.25;4.38;;;-1.70;99.90;;;;;;5058156;28;20119;-69
2021/12/26 12:29:07;;;;;;;9.90;5.32;;;-0.90;99.90;;;;;;5057856;28;20041;-70
2021/12/26 12:31:33;;;;;;;9.63;5.50;;;-1.70;99.90;;;;;;5040234;28;20132;-70
2021/12/26 12:34:04;;;;;;;9.27;5.47;;;-1.60;99.90;;;;;;5023515;28;20144;-68
2021/12/26 12:36:32;;;;;;;8.13;4.57;;;-1.60;99.90;;;;;;5057563;28;20052;-67
2021/12/26 12:39:19;;;;;;;8.70;5.00;;;-1.60;99.90;;;;;;5057640;28;20091;-66
2021/12/26 12:41:48;;;;;;;8.55;4.85;;;-1.50;99.90;;;;;;5040176;28;20037;-69
2021/12/26 12:44:36;;;;;;;9.23;5.35;;;-1.50;99.90;;;;;;5057261;28;20056;-69
2021/12/26 12:47:14;;;;;;;10.48;5.55;;;-1.50;99.90;;;;;;5057762;28;20354;-69
2021/12/26 12:49:52;;;;;;;8.52;4.88;;;-1.50;99.90;;;;;;5057473;28;20049;-70
2021/12/26 12:52:41;;;;;;;6.88;4.63;;;-1.50;99.90;;;;;;5057402;28;20041;-69